UPSVAC Airport Information Service

London Stansted Airport

ICAO: EGSS Country: United Kingdom
Latitude: 51.885 Longitude: 0.235
Latest Arrival : UPS418 (EDDK-EGSS) Latest Departure : UPS1406 (EGSS-KPHL)


WX CaptureLIVE
Data provided by noaa.gov | Fetched at 00:17:08

METAR : EGSS 142350Z AUTO 35007KT 320V020 9999 SCT020 BKN030 OVC049 16/11 Q1022

TAF : EGSS 142259Z 1500/1606 01006KT 9999 SCT035 BECMG 1514/1517 14010KT BECMG 1600/1603 VRB04KT


Runway Data for EGSS
Data provided by openaviationdata.com

Runway ID Mag Var Hdg Length Elevation Surface ILS Freq ILS Id ILS Slope
4 0 43° 9984 ft 348 ft Asphalt 110.5 ISED 3
22 0 223° 9984 ft 348 ft Asphalt 110.5 ISX 3

London Stansted Airport, United Kingdom
Use only for reference purposes



Not for navigational purposes.